sensor_id;sensor_type;location;lat;lon;timestamp;P1;durP1;ratioP1;P2;durP2;ratioP2
3795;SDS011;1913;50.660;7.834;2022-12-18T00:02:14;15.37;;;7.47;;
3795;SDS011;1913;50.660;7.834;2022-12-18T00:04:39;14.77;;;6.77;;
3795;SDS011;1913;50.660;7.834;2022-12-18T00:07:05;10.70;;;5.40;;
3795;SDS011;1913;50.660;7.834;2022-12-18T00:09:30;11.10;;;6.30;;
3795;SDS011;1913;50.660;7.834;2022-12-18T00:11:56;12.33;;;6.60;;
3795;SDS011;1913;50.660;7.834;2022-12-18T00:14:21;20.13;;;6.00;;
3795;SDS011;1913;50.660;7.834;2022-12-18T00:16:46;11.33;;;6.17;;
3795;SDS011;1913;50.660;7.834;2022-12-18T00:19:12;12.37;;;5.93;;
3795;SDS011;1913;50.660;7.834;2022-12-18T00:21:39;11.70;;;5.90;;
3795;SDS011;1913;50.660;7.834;2022-12-18T00:24:04;16.30;;;6.40;;
3795;SDS011;1913;50.660;7.834;2022-12-18T00:26:31;11.17;;;5.50;;
3795;SDS011;1913;50.660;7.834;2022-12-18T00:28:59;11.20;;;5.67;;
3795;SDS011;1913;50.660;7.834;2022-12-18T00:31:26;12.37;;;5.97;;
3795;SDS011;1913;50.660;7.834;2022-12-18T00:33:53;10.73;;;5.73;;
3795;SDS011;1913;50.660;7.834;2022-12-18T00:36:19;13.93;;;6.27;;
3795;SDS011;1913;50.660;7.834;2022-12-18T00:38:46;15.33;;;6.30;;
3795;SDS011;1913;50.660;7.834;2022-12-18T00:41:13;13.63;;;6.90;;
3795;SDS011;1913;50.660;7.834;2022-12-18T00:44:00;11.47;;;5.50;;
3795;SDS011;1913;50.660;7.834;2022-12-18T00:46:25;10.60;;;5.80;;
3795;SDS011;1913;50.660;7.834;2022-12-18T00:48:51;11.50;;;5.77;;
3795;SDS011;1913;50.660;7.834;2022-12-18T00:51:16;11.40;;;5.53;;
3795;SDS011;1913;50.660;7.834;2022-12-18T00:53:42;11.83;;;5.67;;
3795;SDS011;1913;50.660;7.834;2022-12-18T00:56:07;10.30;;;5.57;;
3795;SDS011;1913;50.660;7.834;2022-12-18T00:58:33;10.00;;;5.23;;
3795;SDS011;1913;50.660;7.834;2022-12-18T01:01:01;9.90;;;5.03;;
3795;SDS011;1913;50.660;7.834;2022-12-18T01:03:28;14.30;;;5.67;;
3795;SDS011;1913;50.660;7.834;2022-12-18T01:05:53;9.53;;;5.40;;
3795;SDS011;1913;50.660;7.834;2022-12-18T01:08:19;10.00;;;5.90;;
3795;SDS011;1913;50.660;7.834;2022-12-18T01:10:44;9.30;;;5.10;;
3795;SDS011;1913;50.660;7.834;2022-12-18T01:13:10;8.53;;;4.80;;
3795;SDS011;1913;50.660;7.834;2022-12-18T01:15:35;8.47;;;4.53;;
3795;SDS011;1913;50.660;7.834;2022-12-18T01:18:00;8.50;;;5.00;;
3795;SDS011;1913;50.660;7.834;2022-12-18T01:20:26;9.67;;;4.60;;
3795;SDS011;1913;50.660;7.834;2022-12-18T01:22:51;8.43;;;4.93;;
3795;SDS011;1913;50.660;7.834;2022-12-18T01:25:16;7.37;;;4.60;;
3795;SDS011;1913;50.660;7.834;2022-12-18T01:27:42;10.80;;;4.63;;
3795;SDS011;1913;50.660;7.834;2022-12-18T01:30:07;7.87;;;4.07;;
3795;SDS011;1913;50.660;7.834;2022-12-18T01:32:34;6.97;;;4.17;;
3795;SDS011;1913;50.660;7.834;2022-12-18T01:34:59;7.70;;;4.10;;
3795;SDS011;1913;50.660;7.834;2022-12-18T01:37:24;5.50;;;3.97;;
3795;SDS011;1913;50.660;7.834;2022-12-18T01:39:50;10.10;;;4.97;;
3795;SDS011;1913;50.660;7.834;2022-12-18T01:42:17;9.07;;;4.53;;
3795;SDS011;1913;50.660;7.834;2022-12-18T01:47:40;8.50;;;4.40;;
3795;SDS011;1913;50.660;7.834;2022-12-18T01:52:41;7.27;;;4.00;;
3795;SDS011;1913;50.660;7.834;2022-12-18T01:55:09;6.70;;;4.20;;
3795;SDS011;1913;50.660;7.834;2022-12-18T01:57:36;7.27;;;4.37;;
3795;SDS011;1913;50.660;7.834;2022-12-18T02:00:07;7.60;;;4.53;;
3795;SDS011;1913;50.660;7.834;2022-12-18T02:02:35;7.97;;;4.37;;
3795;SDS011;1913;50.660;7.834;2022-12-18T02:05:01;6.23;;;4.20;;
3795;SDS011;1913;50.660;7.834;2022-12-18T02:07:31;13.53;;;4.60;;
3795;SDS011;1913;50.660;7.834;2022-12-18T02:10:07;14.07;;;4.80;;
3795;SDS011;1913;50.660;7.834;2022-12-18T02:15:27;9.57;;;4.90;;
3795;SDS011;1913;50.660;7.834;2022-12-18T02:18:10;13.67;;;5.70;;
3795;SDS011;1913;50.660;7.834;2022-12-18T02:23:16;11.80;;;5.90;;
3795;SDS011;1913;50.660;7.834;2022-12-18T02:28:28;13.53;;;7.40;;
3795;SDS011;1913;50.660;7.834;2022-12-18T02:30:59;15.27;;;7.20;;
3795;SDS011;1913;50.660;7.834;2022-12-18T02:33:27;13.83;;;6.93;;
3795;SDS011;1913;50.660;7.834;2022-12-18T02:35:55;11.77;;;6.87;;
3795;SDS011;1913;50.660;7.834;2022-12-18T02:38:23;16.67;;;7.60;;
3795;SDS011;1913;50.660;7.834;2022-12-18T02:40:50;16.43;;;7.70;;
3795;SDS011;1913;50.660;7.834;2022-12-18T02:43:18;22.00;;;7.53;;
3795;SDS011;1913;50.660;7.834;2022-12-18T02:45:47;13.70;;;7.87;;
3795;SDS011;1913;50.660;7.834;2022-12-18T02:48:17;24.30;;;9.20;;
3795;SDS011;1913;50.660;7.834;2022-12-18T02:51:10;17.17;;;8.30;;
3795;SDS011;1913;50.660;7.834;2022-12-18T02:53:51;17.00;;;8.37;;
3795;SDS011;1913;50.660;7.834;2022-12-18T02:56:28;19.47;;;8.80;;
3795;SDS011;1913;50.660;7.834;2022-12-18T02:59:14;22.03;;;9.30;;
3795;SDS011;1913;50.660;7.834;2022-12-18T03:05:00;20.90;;;9.73;;
3795;SDS011;1913;50.660;7.834;2022-12-18T03:07:35;17.43;;;9.50;;
3795;SDS011;1913;50.660;7.834;2022-12-18T03:10:06;17.60;;;9.30;;
3795;SDS011;1913;50.660;7.834;2022-12-18T03:12:37;20.97;;;10.00;;
3795;SDS011;1913;50.660;7.834;2022-12-18T03:17:49;21.13;;;10.63;;
3795;SDS011;1913;50.660;7.834;2022-12-18T03:20:21;23.10;;;9.80;;
3795;SDS011;1913;50.660;7.834;2022-12-18T03:22:51;18.53;;;9.67;;
3795;SDS011;1913;50.660;7.834;2022-12-18T03:25:26;22.97;;;10.50;;
3795;SDS011;1913;50.660;7.834;2022-12-18T03:27:54;23.30;;;13.40;;
3795;SDS011;1913;50.660;7.834;2022-12-18T03:30:23;25.20;;;10.73;;
3795;SDS011;1913;50.660;7.834;2022-12-18T03:33:34;19.20;;;10.57;;
3795;SDS011;1913;50.660;7.834;2022-12-18T03:35:52;19.70;;;9.67;;
3795;SDS011;1913;50.660;7.834;2022-12-18T03:38:18;20.37;;;9.73;;
3795;SDS011;1913;50.660;7.834;2022-12-18T03:40:52;19.30;;;10.37;;
3795;SDS011;1913;50.660;7.834;2022-12-18T03:44:06;19.30;;;10.57;;
3795;SDS011;1913;50.660;7.834;2022-12-18T03:52:28;22.97;;;8.93;;
3795;SDS011;1913;50.660;7.834;2022-12-18T03:54:58;22.33;;;10.53;;
3795;SDS011;1913;50.660;7.834;2022-12-18T03:57:27;25.40;;;11.10;;
3795;SDS011;1913;50.660;7.834;2022-12-18T03:59:56;20.93;;;11.17;;
3795;SDS011;1913;50.660;7.834;2022-12-18T04:02:25;22.63;;;11.30;;
3795;SDS011;1913;50.660;7.834;2022-12-18T04:04:52;23.90;;;11.23;;
3795;SDS011;1913;50.660;7.834;2022-12-18T04:07:22;24.13;;;11.33;;
3795;SDS011;1913;50.660;7.834;2022-12-18T04:09:49;20.17;;;11.37;;
3795;SDS011;1913;50.660;7.834;2022-12-18T04:12:18;19.60;;;10.93;;
3795;SDS011;1913;50.660;7.834;2022-12-18T04:14:44;26.63;;;11.60;;
3795;SDS011;1913;50.660;7.834;2022-12-18T04:17:09;24.30;;;11.47;;
3795;SDS011;1913;50.660;7.834;2022-12-18T04:19:35;22.60;;;10.67;;
3795;SDS011;1913;50.660;7.834;2022-12-18T04:22:00;28.50;;;11.37;;
3795;SDS011;1913;50.660;7.834;2022-12-18T04:24:26;24.87;;;11.03;;
3795;SDS011;1913;50.660;7.834;2022-12-18T04:26:51;22.10;;;11.40;;
3795;SDS011;1913;50.660;7.834;2022-12-18T04:29:17;26.33;;;11.67;;
3795;SDS011;1913;50.660;7.834;2022-12-18T04:31:42;20.50;;;10.37;;
3795;SDS011;1913;50.660;7.834;2022-12-18T04:34:07;22.97;;;11.43;;
3795;SDS011;1913;50.660;7.834;2022-12-18T04:36:33;21.97;;;10.63;;
3795;SDS011;1913;50.660;7.834;2022-12-18T04:38:58;20.80;;;10.10;;
3795;SDS011;1913;50.660;7.834;2022-12-18T04:41:23;26.70;;;12.20;;
3795;SDS011;1913;50.660;7.834;2022-12-18T04:43:49;21.40;;;11.60;;
3795;SDS011;1913;50.660;7.834;2022-12-18T04:46:14;20.53;;;9.90;;
3795;SDS011;1913;50.660;7.834;2022-12-18T04:48:40;25.33;;;10.20;;
3795;SDS011;1913;50.660;7.834;2022-12-18T04:51:05;23.17;;;10.80;;
3795;SDS011;1913;50.660;7.834;2022-12-18T04:53:31;22.17;;;10.27;;
3795;SDS011;1913;50.660;7.834;2022-12-18T04:56:10;21.60;;;9.63;;
3795;SDS011;1913;50.660;7.834;2022-12-18T04:58:39;28.17;;;12.50;;
3795;SDS011;1913;50.660;7.834;2022-12-18T05:01:06;21.27;;;10.53;;
3795;SDS011;1913;50.660;7.834;2022-12-18T05:03:32;21.57;;;10.43;;
3795;SDS011;1913;50.660;7.834;2022-12-18T05:05:58;20.20;;;10.17;;
3795;SDS011;1913;50.660;7.834;2022-12-18T05:08:24;17.80;;;9.83;;
3795;SDS011;1913;50.660;7.834;2022-12-18T05:10:57;22.87;;;10.00;;
3795;SDS011;1913;50.660;7.834;2022-12-18T05:13:27;24.03;;;11.47;;
3795;SDS011;1913;50.660;7.834;2022-12-18T05:15:53;21.20;;;9.87;;
3795;SDS011;1913;50.660;7.834;2022-12-18T05:18:19;23.93;;;10.67;;
3795;SDS011;1913;50.660;7.834;2022-12-18T05:20:45;20.37;;;9.67;;
3795;SDS011;1913;50.660;7.834;2022-12-18T05:23:10;27.07;;;9.20;;
3795;SDS011;1913;50.660;7.834;2022-12-18T05:25:36;23.43;;;9.37;;
3795;SDS011;1913;50.660;7.834;2022-12-18T05:28:01;25.20;;;10.30;;
3795;SDS011;1913;50.660;7.834;2022-12-18T05:30:26;18.97;;;8.80;;
3795;SDS011;1913;50.660;7.834;2022-12-18T05:32:52;19.17;;;9.07;;
3795;SDS011;1913;50.660;7.834;2022-12-18T05:35:18;18.50;;;10.10;;
3795;SDS011;1913;50.660;7.834;2022-12-18T05:37:43;22.40;;;9.57;;
3795;SDS011;1913;50.660;7.834;2022-12-18T05:40:09;18.37;;;8.60;;
3795;SDS011;1913;50.660;7.834;2022-12-18T05:42:35;26.50;;;9.40;;
3795;SDS011;1913;50.660;7.834;2022-12-18T05:45:01;20.27;;;9.80;;
3795;SDS011;1913;50.660;7.834;2022-12-18T05:47:26;22.70;;;9.90;;
3795;SDS011;1913;50.660;7.834;2022-12-18T05:49:53;22.70;;;10.63;;
3795;SDS011;1913;50.660;7.834;2022-12-18T05:52:19;16.83;;;8.53;;
3795;SDS011;1913;50.660;7.834;2022-12-18T05:54:44;26.77;;;10.10;;
3795;SDS011;1913;50.660;7.834;2022-12-18T05:57:10;19.70;;;9.33;;
3795;SDS011;1913;50.660;7.834;2022-12-18T05:59:35;21.53;;;9.27;;
3795;SDS011;1913;50.660;7.834;2022-12-18T06:02:00;19.97;;;10.03;;
3795;SDS011;1913;50.660;7.834;2022-12-18T06:04:27;20.03;;;8.60;;
3795;SDS011;1913;50.660;7.834;2022-12-18T06:06:56;18.43;;;9.20;;
3795;SDS011;1913;50.660;7.834;2022-12-18T06:09:22;19.47;;;9.40;;
3795;SDS011;1913;50.660;7.834;2022-12-18T06:11:47;21.17;;;10.73;;
3795;SDS011;1913;50.660;7.834;2022-12-18T06:14:13;18.83;;;10.00;;
3795;SDS011;1913;50.660;7.834;2022-12-18T06:16:38;18.40;;;8.97;;
3795;SDS011;1913;50.660;7.834;2022-12-18T06:19:04;22.50;;;8.90;;
3795;SDS011;1913;50.660;7.834;2022-12-18T06:21:31;23.67;;;8.90;;
3795;SDS011;1913;50.660;7.834;2022-12-18T06:23:57;21.60;;;9.27;;
3795;SDS011;1913;50.660;7.834;2022-12-18T06:26:23;20.33;;;9.50;;
3795;SDS011;1913;50.660;7.834;2022-12-18T06:28:49;23.20;;;9.03;;
3795;SDS011;1913;50.660;7.834;2022-12-18T06:31:14;21.93;;;9.80;;
3795;SDS011;1913;50.660;7.834;2022-12-18T06:33:40;19.70;;;9.60;;
3795;SDS011;1913;50.660;7.834;2022-12-18T06:36:07;21.23;;;9.97;;
3795;SDS011;1913;50.660;7.834;2022-12-18T06:38:34;21.03;;;9.40;;
3795;SDS011;1913;50.660;7.834;2022-12-18T06:41:02;21.77;;;9.67;;
3795;SDS011;1913;50.660;7.834;2022-12-18T06:43:31;22.10;;;9.17;;
3795;SDS011;1913;50.660;7.834;2022-12-18T06:46:00;23.23;;;9.23;;
3795;SDS011;1913;50.660;7.834;2022-12-18T06:48:26;19.63;;;9.10;;
3795;SDS011;1913;50.660;7.834;2022-12-18T06:50:52;20.90;;;9.13;;
3795;SDS011;1913;50.660;7.834;2022-12-18T06:53:17;23.83;;;9.40;;
3795;SDS011;1913;50.660;7.834;2022-12-18T06:55:43;19.63;;;9.37;;
3795;SDS011;1913;50.660;7.834;2022-12-18T06:58:08;21.27;;;8.93;;
3795;SDS011;1913;50.660;7.834;2022-12-18T07:00:33;20.10;;;9.37;;
3795;SDS011;1913;50.660;7.834;2022-12-18T07:02:59;17.13;;;8.87;;
3795;SDS011;1913;50.660;7.834;2022-12-18T07:05:24;22.00;;;9.00;;
3795;SDS011;1913;50.660;7.834;2022-12-18T07:07:50;18.80;;;9.37;;
3795;SDS011;1913;50.660;7.834;2022-12-18T07:10:15;22.87;;;9.23;;
3795;SDS011;1913;50.660;7.834;2022-12-18T07:12:40;17.00;;;8.77;;
3795;SDS011;1913;50.660;7.834;2022-12-18T07:15:06;17.73;;;8.70;;
3795;SDS011;1913;50.660;7.834;2022-12-18T07:17:32;20.67;;;9.67;;
3795;SDS011;1913;50.660;7.834;2022-12-18T07:19:57;21.73;;;9.17;;
3795;SDS011;1913;50.660;7.834;2022-12-18T07:22:24;16.77;;;8.27;;
3795;SDS011;1913;50.660;7.834;2022-12-18T07:24:50;20.80;;;9.00;;
3795;SDS011;1913;50.660;7.834;2022-12-18T07:27:16;19.03;;;8.87;;
3795;SDS011;1913;50.660;7.834;2022-12-18T07:29:41;20.90;;;8.70;;
3795;SDS011;1913;50.660;7.834;2022-12-18T07:32:07;16.77;;;8.40;;
3795;SDS011;1913;50.660;7.834;2022-12-18T07:34:32;19.60;;;8.93;;
3795;SDS011;1913;50.660;7.834;2022-12-18T07:36:58;17.07;;;8.80;;
3795;SDS011;1913;50.660;7.834;2022-12-18T07:39:23;19.33;;;9.23;;
3795;SDS011;1913;50.660;7.834;2022-12-18T07:41:48;13.13;;;8.30;;
3795;SDS011;1913;50.660;7.834;2022-12-18T07:44:34;14.33;;;7.37;;
3795;SDS011;1913;50.660;7.834;2022-12-18T07:46:59;16.53;;;8.30;;
3795;SDS011;1913;50.660;7.834;2022-12-18T07:49:25;16.80;;;9.97;;
3795;SDS011;1913;50.660;7.834;2022-12-18T07:51:50;18.60;;;8.23;;
3795;SDS011;1913;50.660;7.834;2022-12-18T07:54:16;17.40;;;7.50;;
3795;SDS011;1913;50.660;7.834;2022-12-18T07:56:41;17.50;;;8.80;;
3795;SDS011;1913;50.660;7.834;2022-12-18T07:59:06;16.87;;;7.57;;
3795;SDS011;1913;50.660;7.834;2022-12-18T08:01:33;20.37;;;8.83;;
3795;SDS011;1913;50.660;7.834;2022-12-18T08:03:59;15.80;;;7.63;;
3795;SDS011;1913;50.660;7.834;2022-12-18T08:06:24;16.17;;;7.73;;
3795;SDS011;1913;50.660;7.834;2022-12-18T08:08:54;12.53;;;7.33;;
3795;SDS011;1913;50.660;7.834;2022-12-18T08:11:21;15.07;;;7.80;;
3795;SDS011;1913;50.660;7.834;2022-12-18T08:13:47;16.57;;;8.50;;
3795;SDS011;1913;50.660;7.834;2022-12-18T08:16:13;13.50;;;7.80;;
3795;SDS011;1913;50.660;7.834;2022-12-18T08:18:38;14.03;;;7.00;;
3795;SDS011;1913;50.660;7.834;2022-12-18T08:21:37;15.03;;;8.10;;
3795;SDS011;1913;50.660;7.834;2022-12-18T08:23:57;15.10;;;8.00;;
3795;SDS011;1913;50.660;7.834;2022-12-18T08:26:25;15.00;;;7.33;;
3795;SDS011;1913;50.660;7.834;2022-12-18T08:28:53;16.80;;;8.87;;
3795;SDS011;1913;50.660;7.834;2022-12-18T08:31:20;14.60;;;7.30;;
3795;SDS011;1913;50.660;7.834;2022-12-18T08:33:47;16.00;;;8.10;;
3795;SDS011;1913;50.660;7.834;2022-12-18T08:36:15;12.57;;;7.53;;
3795;SDS011;1913;50.660;7.834;2022-12-18T08:38:40;18.13;;;8.60;;
3795;SDS011;1913;50.660;7.834;2022-12-18T08:41:07;15.43;;;8.20;;
3795;SDS011;1913;50.660;7.834;2022-12-18T08:43:34;15.10;;;7.70;;
3795;SDS011;1913;50.660;7.834;2022-12-18T08:46:19;16.20;;;8.53;;
3795;SDS011;1913;50.660;7.834;2022-12-18T08:48:45;11.20;;;6.40;;
3795;SDS011;1913;50.660;7.834;2022-12-18T08:51:11;14.53;;;6.67;;
3795;SDS011;1913;50.660;7.834;2022-12-18T08:53:37;13.23;;;7.13;;
3795;SDS011;1913;50.660;7.834;2022-12-18T08:56:03;16.13;;;7.50;;
3795;SDS011;1913;50.660;7.834;2022-12-18T08:58:29;16.00;;;7.30;;
3795;SDS011;1913;50.660;7.834;2022-12-18T09:01:05;14.43;;;7.00;;
3795;SDS011;1913;50.660;7.834;2022-12-18T09:03:32;15.10;;;7.50;;
3795;SDS011;1913;50.660;7.834;2022-12-18T09:05:58;14.17;;;6.77;;
3795;SDS011;1913;50.660;7.834;2022-12-18T09:08:24;14.80;;;7.00;;
3795;SDS011;1913;50.660;7.834;2022-12-18T09:10:50;15.00;;;6.87;;
3795;SDS011;1913;50.660;7.834;2022-12-18T09:13:16;12.80;;;7.13;;
3795;SDS011;1913;50.660;7.834;2022-12-18T09:15:43;14.07;;;6.77;;
3795;SDS011;1913;50.660;7.834;2022-12-18T09:18:11;14.83;;;6.43;;
3795;SDS011;1913;50.660;7.834;2022-12-18T09:20:37;13.43;;;7.20;;
3795;SDS011;1913;50.660;7.834;2022-12-18T09:23:04;14.57;;;7.27;;
3795;SDS011;1913;50.660;7.834;2022-12-18T09:25:30;14.00;;;7.17;;
3795;SDS011;1913;50.660;7.834;2022-12-18T09:28:01;15.30;;;7.20;;
3795;SDS011;1913;50.660;7.834;2022-12-18T09:30:28;13.93;;;7.33;;
3795;SDS011;1913;50.660;7.834;2022-12-18T09:32:53;13.93;;;6.47;;
3795;SDS011;1913;50.660;7.834;2022-12-18T09:35:19;13.60;;;7.20;;
3795;SDS011;1913;50.660;7.834;2022-12-18T09:37:44;15.20;;;6.70;;
3795;SDS011;1913;50.660;7.834;2022-12-18T09:40:14;12.47;;;7.30;;
3795;SDS011;1913;50.660;7.834;2022-12-18T09:42:41;15.33;;;6.93;;
3795;SDS011;1913;50.660;7.834;2022-12-18T09:45:13;14.43;;;7.30;;
3795;SDS011;1913;50.660;7.834;2022-12-18T09:47:40;17.00;;;7.50;;
3795;SDS011;1913;50.660;7.834;2022-12-18T09:50:22;14.87;;;6.80;;
3795;SDS011;1913;50.660;7.834;2022-12-18T09:52:56;12.67;;;6.50;;
3795;SDS011;1913;50.660;7.834;2022-12-18T09:58:06;12.97;;;7.07;;
3795;SDS011;1913;50.660;7.834;2022-12-18T10:00:39;13.90;;;6.53;;
3795;SDS011;1913;50.660;7.834;2022-12-18T10:03:12;15.17;;;7.10;;
3795;SDS011;1913;50.660;7.834;2022-12-18T10:08:05;13.43;;;7.03;;
3795;SDS011;1913;50.660;7.834;2022-12-18T10:20:38;13.80;;;7.17;;
3795;SDS011;1913;50.660;7.834;2022-12-18T10:25:59;12.20;;;6.80;;
3795;SDS011;1913;50.660;7.834;2022-12-18T10:28:27;16.10;;;7.57;;
3795;SDS011;1913;50.660;7.834;2022-12-18T10:30:55;17.33;;;7.20;;
3795;SDS011;1913;50.660;7.834;2022-12-18T10:33:22;14.17;;;7.67;;
3795;SDS011;1913;50.660;7.834;2022-12-18T10:35:50;14.57;;;7.40;;
3795;SDS011;1913;50.660;7.834;2022-12-18T10:43:30;13.63;;;7.43;;
3795;SDS011;1913;50.660;7.834;2022-12-18T10:51:19;14.00;;;7.33;;
3795;SDS011;1913;50.660;7.834;2022-12-18T10:54:04;18.73;;;8.30;;
3795;SDS011;1913;50.660;7.834;2022-12-18T10:56:35;16.17;;;8.03;;
3795;SDS011;1913;50.660;7.834;2022-12-18T11:01:32;18.37;;;8.27;;
3795;SDS011;1913;50.660;7.834;2022-12-18T11:09:31;13.13;;;7.83;;
3795;SDS011;1913;50.660;7.834;2022-12-18T11:12:00;16.43;;;8.70;;
3795;SDS011;1913;50.660;7.834;2022-12-18T11:14:32;17.90;;;8.80;;
3795;SDS011;1913;50.660;7.834;2022-12-18T11:17:16;16.83;;;9.33;;
3795;SDS011;1913;50.660;7.834;2022-12-18T11:19:54;18.47;;;9.00;;
3795;SDS011;1913;50.660;7.834;2022-12-18T11:22:43;16.23;;;8.70;;
3795;SDS011;1913;50.660;7.834;2022-12-18T11:27:37;16.57;;;9.80;;
3795;SDS011;1913;50.660;7.834;2022-12-18T11:30:37;17.13;;;9.77;;
3795;SDS011;1913;50.660;7.834;2022-12-18T11:33:04;17.53;;;9.40;;
3795;SDS011;1913;50.660;7.834;2022-12-18T11:38:15;18.73;;;9.27;;
3795;SDS011;1913;50.660;7.834;2022-12-18T11:44:14;18.50;;;8.80;;
3795;SDS011;1913;50.660;7.834;2022-12-18T11:46:49;22.17;;;10.10;;
3795;SDS011;1913;50.660;7.834;2022-12-18T11:49:22;18.13;;;9.93;;
3795;SDS011;1913;50.660;7.834;2022-12-18T11:52:40;20.70;;;9.73;;
3795;SDS011;1913;50.660;7.834;2022-12-18T11:54:52;15.37;;;9.07;;
3795;SDS011;1913;50.660;7.834;2022-12-18T12:00:11;19.40;;;9.00;;
3795;SDS011;1913;50.660;7.834;2022-12-18T12:16:25;20.13;;;9.83;;
3795;SDS011;1913;50.660;7.834;2022-12-18T12:22:08;20.60;;;9.77;;
3795;SDS011;1913;50.660;7.834;2022-12-18T12:27:41;24.73;;;11.53;;
3795;SDS011;1913;50.660;7.834;2022-12-18T12:38:37;22.10;;;11.10;;
3795;SDS011;1913;50.660;7.834;2022-12-18T12:41:12;21.03;;;11.03;;
3795;SDS011;1913;50.660;7.834;2022-12-18T12:44:00;26.00;;;11.20;;
3795;SDS011;1913;50.660;7.834;2022-12-18T12:46:31;23.00;;;11.33;;
3795;SDS011;1913;50.660;7.834;2022-12-18T12:49:02;27.67;;;10.83;;
3795;SDS011;1913;50.660;7.834;2022-12-18T12:51:38;23.33;;;11.23;;
3795;SDS011;1913;50.660;7.834;2022-12-18T12:54:11;22.87;;;12.97;;
3795;SDS011;1913;50.660;7.834;2022-12-18T12:59:19;22.73;;;11.57;;
3795;SDS011;1913;50.660;7.834;2022-12-18T13:07:15;24.67;;;12.83;;
3795;SDS011;1913;50.660;7.834;2022-12-18T13:13:04;30.50;;;12.73;;
3795;SDS011;1913;50.660;7.834;2022-12-18T13:15:38;24.53;;;13.47;;
3795;SDS011;1913;50.660;7.834;2022-12-18T13:28:22;29.33;;;12.97;;
3795;SDS011;1913;50.660;7.834;2022-12-18T13:30:56;30.50;;;14.37;;
3795;SDS011;1913;50.660;7.834;2022-12-18T13:35:53;30.50;;;12.90;;
3795;SDS011;1913;50.660;7.834;2022-12-18T13:43:23;30.27;;;13.97;;
3795;SDS011;1913;50.660;7.834;2022-12-18T13:46:06;37.33;;;15.53;;
3795;SDS011;1913;50.660;7.834;2022-12-18T13:51:16;29.17;;;14.40;;
3795;SDS011;1913;50.660;7.834;2022-12-18T13:53:48;33.37;;;14.80;;
3795;SDS011;1913;50.660;7.834;2022-12-18T13:56:16;29.43;;;14.40;;
3795;SDS011;1913;50.660;7.834;2022-12-18T13:58:42;34.60;;;14.97;;
3795;SDS011;1913;50.660;7.834;2022-12-18T14:01:23;34.03;;;13.70;;
3795;SDS011;1913;50.660;7.834;2022-12-18T14:03:49;28.50;;;13.70;;
3795;SDS011;1913;50.660;7.834;2022-12-18T14:06:15;30.07;;;14.93;;
3795;SDS011;1913;50.660;7.834;2022-12-18T14:08:41;28.97;;;14.30;;
3795;SDS011;1913;50.660;7.834;2022-12-18T14:13:45;30.07;;;14.47;;
3795;SDS011;1913;50.660;7.834;2022-12-18T14:16:12;33.33;;;14.13;;
3795;SDS011;1913;50.660;7.834;2022-12-18T14:18:45;32.03;;;15.30;;
3795;SDS011;1913;50.660;7.834;2022-12-18T14:21:20;29.80;;;14.00;;
3795;SDS011;1913;50.660;7.834;2022-12-18T14:26:40;36.03;;;15.97;;
3795;SDS011;1913;50.660;7.834;2022-12-18T14:34:41;35.40;;;15.50;;
3795;SDS011;1913;50.660;7.834;2022-12-18T14:37:09;35.23;;;15.53;;
3795;SDS011;1913;50.660;7.834;2022-12-18T14:39:35;38.90;;;16.70;;
3795;SDS011;1913;50.660;7.834;2022-12-18T14:42:00;40.03;;;15.77;;
3795;SDS011;1913;50.660;7.834;2022-12-18T14:44:26;36.83;;;15.07;;
3795;SDS011;1913;50.660;7.834;2022-12-18T14:46:51;37.80;;;16.27;;
3795;SDS011;1913;50.660;7.834;2022-12-18T14:49:23;32.63;;;15.30;;
3795;SDS011;1913;50.660;7.834;2022-12-18T14:52:00;36.60;;;17.33;;
3795;SDS011;1913;50.660;7.834;2022-12-18T14:54:28;35.60;;;16.83;;
3795;SDS011;1913;50.660;7.834;2022-12-18T14:59:28;40.93;;;17.70;;
3795;SDS011;1913;50.660;7.834;2022-12-18T15:02:00;29.30;;;14.70;;
3795;SDS011;1913;50.660;7.834;2022-12-18T15:07:48;40.30;;;17.07;;
3795;SDS011;1913;50.660;7.834;2022-12-18T15:10:16;39.50;;;17.53;;
3795;SDS011;1913;50.660;7.834;2022-12-18T15:12:43;38.23;;;16.40;;
3795;SDS011;1913;50.660;7.834;2022-12-18T15:21:06;39.70;;;18.20;;
3795;SDS011;1913;50.660;7.834;2022-12-18T15:23:35;38.43;;;16.60;;
3795;SDS011;1913;50.660;7.834;2022-12-18T15:26:08;35.60;;;15.87;;
3795;SDS011;1913;50.660;7.834;2022-12-18T15:28:45;36.97;;;16.43;;
3795;SDS011;1913;50.660;7.834;2022-12-18T15:33:43;43.03;;;16.63;;
3795;SDS011;1913;50.660;7.834;2022-12-18T15:36:12;44.00;;;19.00;;
3795;SDS011;1913;50.660;7.834;2022-12-18T15:38:39;38.10;;;17.77;;
3795;SDS011;1913;50.660;7.834;2022-12-18T15:41:11;41.90;;;18.53;;
3795;SDS011;1913;50.660;7.834;2022-12-18T15:43:39;38.17;;;15.60;;
3795;SDS011;1913;50.660;7.834;2022-12-18T15:46:12;42.10;;;17.23;;
3795;SDS011;1913;50.660;7.834;2022-12-18T15:48:43;48.30;;;19.37;;
3795;SDS011;1913;50.660;7.834;2022-12-18T15:54:05;49.80;;;18.70;;
3795;SDS011;1913;50.660;7.834;2022-12-18T15:56:36;35.37;;;15.87;;
3795;SDS011;1913;50.660;7.834;2022-12-18T15:59:21;41.30;;;17.67;;
3795;SDS011;1913;50.660;7.834;2022-12-18T16:01:47;41.60;;;18.23;;
3795;SDS011;1913;50.660;7.834;2022-12-18T16:04:15;44.70;;;18.70;;
3795;SDS011;1913;50.660;7.834;2022-12-18T16:06:42;44.20;;;15.47;;
3795;SDS011;1913;50.660;7.834;2022-12-18T16:09:08;41.80;;;15.67;;
3795;SDS011;1913;50.660;7.834;2022-12-18T16:11:34;50.17;;;18.27;;
3795;SDS011;1913;50.660;7.834;2022-12-18T16:14:14;43.53;;;17.53;;
3795;SDS011;1913;50.660;7.834;2022-12-18T16:16:56;37.63;;;15.60;;
3795;SDS011;1913;50.660;7.834;2022-12-18T16:19:23;49.93;;;19.57;;
3795;SDS011;1913;50.660;7.834;2022-12-18T16:21:50;38.97;;;15.87;;
3795;SDS011;1913;50.660;7.834;2022-12-18T16:24:18;44.03;;;16.80;;
3795;SDS011;1913;50.660;7.834;2022-12-18T16:26:49;42.53;;;17.00;;
3795;SDS011;1913;50.660;7.834;2022-12-18T16:29:16;41.07;;;17.83;;
3795;SDS011;1913;50.660;7.834;2022-12-18T16:31:42;48.10;;;17.70;;
3795;SDS011;1913;50.660;7.834;2022-12-18T16:34:18;55.40;;;20.43;;
3795;SDS011;1913;50.660;7.834;2022-12-18T16:36:51;36.73;;;16.10;;
3795;SDS011;1913;50.660;7.834;2022-12-18T16:39:20;39.20;;;16.40;;
3795;SDS011;1913;50.660;7.834;2022-12-18T16:41:46;49.27;;;20.13;;
3795;SDS011;1913;50.660;7.834;2022-12-18T16:44:12;48.63;;;18.30;;
3795;SDS011;1913;50.660;7.834;2022-12-18T16:46:37;44.93;;;18.50;;
3795;SDS011;1913;50.660;7.834;2022-12-18T16:49:04;41.80;;;18.00;;
3795;SDS011;1913;50.660;7.834;2022-12-18T16:51:29;48.93;;;19.10;;
3795;SDS011;1913;50.660;7.834;2022-12-18T16:53:55;43.27;;;18.70;;
3795;SDS011;1913;50.660;7.834;2022-12-18T16:56:21;51.00;;;18.30;;
3795;SDS011;1913;50.660;7.834;2022-12-18T16:58:52;47.60;;;19.40;;
3795;SDS011;1913;50.660;7.834;2022-12-18T17:01:20;46.60;;;19.77;;
3795;SDS011;1913;50.660;7.834;2022-12-18T17:03:55;53.87;;;18.20;;
3795;SDS011;1913;50.660;7.834;2022-12-18T17:06:23;43.53;;;17.90;;
3795;SDS011;1913;50.660;7.834;2022-12-18T17:08:56;47.93;;;20.57;;
3795;SDS011;1913;50.660;7.834;2022-12-18T17:11:23;53.73;;;21.83;;
3795;SDS011;1913;50.660;7.834;2022-12-18T17:13:50;57.47;;;22.20;;
3795;SDS011;1913;50.660;7.834;2022-12-18T17:16:16;47.73;;;18.67;;
3795;SDS011;1913;50.660;7.834;2022-12-18T17:18:42;50.37;;;18.90;;
3795;SDS011;1913;50.660;7.834;2022-12-18T17:21:08;51.07;;;20.40;;
3795;SDS011;1913;50.660;7.834;2022-12-18T17:23:35;47.87;;;18.67;;
3795;SDS011;1913;50.660;7.834;2022-12-18T17:26:01;53.30;;;20.40;;
3795;SDS011;1913;50.660;7.834;2022-12-18T17:28:29;53.13;;;19.03;;
3795;SDS011;1913;50.660;7.834;2022-12-18T17:30:55;51.57;;;20.30;;
3795;SDS011;1913;50.660;7.834;2022-12-18T17:33:22;55.90;;;20.07;;
3795;SDS011;1913;50.660;7.834;2022-12-18T17:35:48;49.93;;;20.27;;
3795;SDS011;1913;50.660;7.834;2022-12-18T17:38:14;51.20;;;19.80;;
3795;SDS011;1913;50.660;7.834;2022-12-18T17:40:40;57.20;;;20.97;;
3795;SDS011;1913;50.660;7.834;2022-12-18T17:43:06;49.70;;;19.37;;
3795;SDS011;1913;50.660;7.834;2022-12-18T17:45:36;52.93;;;19.43;;
3795;SDS011;1913;50.660;7.834;2022-12-18T17:48:03;54.50;;;20.53;;